createdAt,value
2023-02-28T00:01:31.462Z,103118.22
2023-02-28T00:04:01.442Z,103118.22
2023-02-28T00:06:29.884Z,103117.41
2023-02-28T00:09:00.283Z,103116.53
2023-02-28T00:11:28.634Z,103112.16
2023-02-28T00:13:56.759Z,103120.09
2023-02-28T00:16:24.932Z,103118.34
2023-02-28T00:18:54.155Z,103117.41
2023-02-28T00:21:23.586Z,103128.91
2023-02-28T00:23:51.550Z,103117.47
2023-02-28T00:26:21.919Z,103123.66
2023-02-28T00:28:50.550Z,103116.56
2023-02-28T00:31:18.505Z,103110.38
2023-02-28T00:33:47.212Z,103117.41
2023-02-28T00:36:16.531Z,103116.53
2023-02-28T00:38:46.096Z,103111.25
2023-02-28T00:41:14.372Z,103120.06
2023-02-28T00:43:44.921Z,103121.84
2023-02-28T00:46:12.935Z,103113.88
2023-02-28T00:48:40.894Z,103121.81
2023-02-28T00:51:08.912Z,103120.94
2023-02-28T00:53:36.870Z,103117.41
2023-02-28T00:56:07.175Z,103122.66
2023-02-28T00:58:35.271Z,103120.91
2023-02-28T01:01:03.291Z,103119.19
2023-02-28T01:03:32.491Z,103131.56
2023-02-28T01:06:00.919Z,103129.81
2023-02-28T01:08:28.950Z,103132.47
2023-02-28T01:10:56.889Z,103130.72
2023-02-28T01:13:26.417Z,103136.00
2023-02-28T01:15:58.103Z,103139.53
2023-02-28T01:18:26.428Z,103128.94
2023-02-28T01:20:54.996Z,103137.72
2023-02-28T01:23:24.613Z,103143.03
2023-02-28T01:25:52.605Z,103143.09
2023-02-28T01:28:21.072Z,103142.16
2023-02-28T01:30:51.802Z,103147.47
2023-02-28T01:33:19.747Z,103135.06
2023-02-28T01:35:47.661Z,103131.56
2023-02-28T01:38:22.181Z,103141.28
2023-02-28T01:40:50.439Z,103136.00
2023-02-28T01:43:25.406Z,103129.81
2023-02-28T01:45:55.737Z,103132.47
2023-02-28T01:48:28.230Z,103128.97
2023-02-28T01:51:00.908Z,103127.19
2023-02-28T01:53:33.710Z,103131.63
2023-02-28T01:56:02.256Z,103121.06
2023-02-28T01:58:30.239Z,103125.47
2023-02-28T02:00:59.547Z,103130.75
2023-02-28T02:03:27.687Z,103124.56
2023-02-28T02:05:55.510Z,103129.00
2023-02-28T02:08:27.851Z,103122.81
2023-02-28T02:10:58.646Z,103122.81
2023-02-28T02:13:59.360Z,103123.69
2023-02-28T02:16:43.805Z,103121.94
2023-02-28T02:19:29.367Z,103123.72
2023-02-28T02:22:23.786Z,103121.09
2023-02-28T02:25:05.680Z,103118.44
2023-02-28T02:27:50.996Z,103117.59
2023-02-28T02:30:53.584Z,103116.72
2023-02-28T02:33:53.926Z,103116.72
2023-02-28T02:36:27.311Z,103115.84
2023-02-28T02:39:04.544Z,103119.38
2023-02-28T02:41:40.733Z,103109.66
2023-02-28T02:44:15.965Z,103114.06
2023-02-28T02:46:46.393Z,103120.22
2023-02-28T02:49:19.457Z,103120.25
2023-02-28T02:51:50.504Z,103121.09
2023-02-28T02:54:23.914Z,103115.81
2023-02-28T02:56:53.904Z,103110.53
2023-02-28T02:59:24.907Z,103112.31
2023-02-28T03:01:57.164Z,103109.66
2023-02-28T03:04:30.176Z,103114.91
2023-02-28T03:06:59.508Z,103115.78
2023-02-28T03:09:28.470Z,103119.28
2023-02-28T03:11:58.681Z,103119.25
2023-02-28T03:14:47.194Z,103125.44
2023-02-28T03:17:30.733Z,103119.22
2023-02-28T03:20:08.381Z,103116.59
2023-02-28T03:22:53.529Z,103120.97
2023-02-28T03:25:29.777Z,103128.91
2023-02-28T03:28:11.035Z,103135.03
2023-02-28T03:30:48.384Z,103124.44
2023-02-28T03:33:20.310Z,103125.31
2023-02-28T03:35:53.456Z,103129.69
2023-02-28T03:38:28.430Z,103134.03
2023-02-28T03:41:03.808Z,103130.50
2023-02-28T03:43:36.460Z,103132.25
2023-02-28T03:46:10.691Z,103127.88
2023-02-28T03:48:45.236Z,103134.03
2023-02-28T03:51:18.807Z,103124.28
2023-02-28T03:53:52.619Z,103137.47
2023-02-28T03:56:22.922Z,103136.59
2023-02-28T03:58:56.027Z,103133.91
2023-02-28T04:01:29.728Z,103123.41
2023-02-28T04:03:58.009Z,103140.06
2023-02-28T04:06:26.654Z,103132.13
2023-02-28T04:08:55.930Z,103146.19
2023-02-28T04:11:26.451Z,103145.28
2023-02-28T04:13:54.538Z,103141.81
2023-02-28T04:16:34.539Z,103137.38
2023-02-28T04:19:04.591Z,103146.09
2023-02-28T04:21:34.119Z,103140.84
2023-02-28T04:24:03.997Z,103148.88
2023-02-28T04:26:32.153Z,103149.72
2023-02-28T04:29:00.643Z,103143.53
2023-02-28T04:31:29.125Z,103146.13
2023-02-28T04:33:57.140Z,103147.81
2023-02-28T04:36:25.200Z,103142.53
2023-02-28T04:38:53.245Z,103144.22
2023-02-28T04:41:23.857Z,103142.53
2023-02-28T04:43:53.562Z,103150.50
2023-02-28T04:46:23.027Z,103152.19
2023-02-28T04:48:51.233Z,103148.59
2023-02-28T04:51:21.116Z,103152.13
2023-02-28T04:53:49.612Z,103159.13
2023-02-28T04:56:19.740Z,103144.16
2023-02-28T04:58:49.617Z,103156.44
2023-02-28T05:01:25.364Z,103144.16
2023-02-28T05:03:54.874Z,103157.38
2023-02-28T05:06:25.286Z,103156.44
2023-02-28T05:08:53.245Z,103155.50
2023-02-28T05:11:23.627Z,103152.00
2023-02-28T05:13:54.698Z,103151.09
2023-02-28T05:16:23.034Z,103162.53
2023-02-28T05:18:51.207Z,103166.91
2023-02-28T05:21:30.035Z,103165.97
2023-02-28T05:23:59.629Z,103165.03
2023-02-28T05:26:28.910Z,103165.84
2023-02-28T05:28:58.747Z,103159.69
2023-02-28T05:31:27.529Z,103164.97
2023-02-28T05:33:55.753Z,103167.56
2023-02-28T05:36:23.934Z,103164.88
2023-02-28T05:38:53.070Z,103162.22
2023-02-28T05:41:22.276Z,103166.56
2023-02-28T05:43:50.904Z,103166.50
2023-02-28T05:46:20.255Z,103162.13
2023-02-28T05:48:50.253Z,103159.53
2023-02-28T05:51:19.183Z,103156.97
2023-02-28T05:53:47.153Z,103167.47
2023-02-28T05:56:15.131Z,103172.66
2023-02-28T05:58:43.069Z,103180.53
2023-02-28T06:01:32.666Z,103182.22
2023-02-28T06:04:01.010Z,103175.13
2023-02-28T06:06:29.235Z,103170.84
2023-02-28T06:08:57.378Z,103175.38
2023-02-28T06:11:28.459Z,103176.31
2023-02-28T06:13:58.050Z,103182.38
2023-02-28T06:16:28.306Z,103185.00
2023-02-28T06:18:57.768Z,103184.94
2023-02-28T06:21:26.275Z,103180.53
2023-02-28T06:23:54.100Z,103184.03
2023-02-28T06:26:22.318Z,103182.28
2023-02-28T06:28:50.934Z,103187.66
2023-02-28T06:31:20.703Z,103190.34
2023-02-28T06:33:50.461Z,103196.44
2023-02-28T06:36:19.322Z,103192.06
2023-02-28T06:38:52.475Z,103203.50
2023-02-28T06:41:20.362Z,103195.53
2023-02-28T06:43:48.147Z,103202.50
2023-02-28T06:46:17.147Z,103199.91
2023-02-28T06:48:45.763Z,103195.53
2023-02-28T06:51:16.721Z,103195.56
2023-02-28T06:53:45.153Z,103199.31
2023-02-28T06:56:15.430Z,103195.03
2023-02-28T06:58:44.943Z,103201.13
2023-02-28T07:01:12.928Z,103208.22
2023-02-28T07:03:40.891Z,103202.94
2023-02-28T07:06:09.069Z,103198.53
2023-02-28T07:08:38.416Z,103196.84
2023-02-28T07:11:06.755Z,103209.94
2023-02-28T07:13:34.830Z,103217.03
2023-02-28T07:16:05.236Z,103205.72
2023-02-28T07:18:33.642Z,103203.91
2023-02-28T07:21:03.957Z,103210.94
2023-02-28T07:23:32.346Z,103214.53
2023-02-28T07:26:01.722Z,103214.53
2023-02-28T07:28:30.188Z,103210.22
2023-02-28T07:30:58.215Z,103211.06
2023-02-28T07:33:26.244Z,103214.69
2023-02-28T07:35:54.170Z,103207.72
2023-02-28T07:38:22.415Z,103213.94
2023-02-28T07:40:50.295Z,103204.34
2023-02-28T07:43:20.389Z,103213.16
2023-02-28T07:45:48.395Z,103208.78
2023-02-28T07:48:16.957Z,103215.00
2023-02-28T07:50:45.026Z,103216.81
2023-02-28T07:53:12.996Z,103215.94
2023-02-28T07:55:41.166Z,103208.94
2023-02-28T07:58:11.501Z,103210.72
2023-02-28T08:00:41.319Z,103212.50
2023-02-28T08:03:11.553Z,103218.72
2023-02-28T08:05:41.679Z,103215.19
2023-02-28T08:08:10.129Z,103212.56
2023-02-28T08:10:44.990Z,103217.03
2023-02-28T08:13:12.932Z,103218.84
2023-02-28T08:15:43.006Z,103215.31
2023-02-28T08:18:11.268Z,103217.97
2023-02-28T08:20:41.843Z,103224.09
2023-02-28T08:23:09.905Z,103220.63
2023-02-28T08:25:37.942Z,103223.28
2023-02-28T08:28:06.435Z,103211.84
2023-02-28T08:30:34.708Z,103225.09
2023-02-28T08:33:04.068Z,103224.19
2023-02-28T08:35:32.536Z,103217.16
2023-02-28T08:38:01.932Z,103225.13
2023-02-28T08:40:30.008Z,103213.69
2023-02-28T08:42:58.521Z,103219.81
2023-02-28T08:45:26.598Z,103218.06
2023-02-28T08:47:58.945Z,103211.91
2023-02-28T08:50:28.249Z,103219.84
2023-02-28T08:52:56.288Z,103223.38
2023-02-28T08:55:24.909Z,103217.19
2023-02-28T08:57:53.571Z,103222.47
2023-02-28T09:00:22.750Z,103229.53
2023-02-28T09:02:50.845Z,103220.72
2023-02-28T09:05:20.679Z,103218.91
2023-02-28T09:07:54.117Z,103218.00
2023-02-28T09:10:22.129Z,103225.94
2023-02-28T09:12:50.268Z,103234.75
2023-02-28T09:15:18.969Z,103225.03
2023-02-28T09:17:48.702Z,103231.19
2023-02-28T09:20:18.027Z,103226.72
2023-02-28T09:22:46.582Z,103224.06
2023-02-28T09:25:16.392Z,103226.78
2023-02-28T09:27:44.574Z,103227.66
2023-02-28T09:30:15.290Z,103236.47
2023-02-28T09:32:43.132Z,103232.84
2023-02-28T09:35:15.627Z,103235.56
2023-02-28T09:37:43.961Z,103231.06
2023-02-28T09:40:14.148Z,103233.66
2023-02-28T09:42:43.497Z,103225.69
2023-02-28T09:45:21.937Z,103230.91
2023-02-28T09:47:52.509Z,103235.28
2023-02-28T09:50:31.372Z,103238.81
2023-02-28T09:53:01.148Z,103237.91
2023-02-28T09:55:41.413Z,103242.28
2023-02-28T09:58:21.295Z,103241.41
2023-02-28T10:00:57.705Z,103242.28
2023-02-28T10:03:35.579Z,103238.75
2023-02-28T10:06:10.667Z,103243.06
2023-02-28T10:08:46.338Z,103241.38
2023-02-28T10:11:19.133Z,103237.88
2023-02-28T10:13:57.067Z,103236.09
2023-02-28T10:16:30.827Z,103236.13
2023-02-28T10:19:04.529Z,103237.84
2023-02-28T10:21:40.422Z,103237.03
2023-02-28T10:24:21.315Z,103234.31
2023-02-28T10:26:52.374Z,103236.16
2023-02-28T10:29:21.774Z,103234.28
2023-02-28T10:31:49.909Z,103236.00
2023-02-28T10:34:17.791Z,103236.03
2023-02-28T10:36:46.787Z,103236.06
2023-02-28T10:39:37.484Z,103235.06
2023-02-28T10:42:06.036Z,103231.50
2023-02-28T10:44:35.445Z,103227.84
2023-02-28T10:47:03.744Z,103233.06
2023-02-28T10:49:32.018Z,103224.16
2023-02-28T10:52:02.509Z,103228.47
2023-02-28T10:54:39.333Z,103228.31
2023-02-28T10:57:25.463Z,103227.41
2023-02-28T11:00:08.799Z,103227.38
2023-02-28T11:02:39.256Z,103228.31
2023-02-28T11:05:29.056Z,103230.25
2023-02-28T11:08:03.952Z,103235.47
2023-02-28T11:10:35.791Z,103237.31
2023-02-28T11:13:04.623Z,103228.44
2023-02-28T11:15:35.883Z,103228.28
2023-02-28T11:18:19.175Z,103229.19
2023-02-28T11:20:52.324Z,103226.75
2023-02-28T11:23:22.390Z,103224.06
2023-02-28T11:25:54.874Z,103226.53
2023-02-28T11:28:29.697Z,103222.94
2023-02-28T11:31:20.485Z,103221.22
2023-02-28T11:33:51.432Z,103219.41
2023-02-28T11:36:22.875Z,103209.59
2023-02-28T11:38:51.578Z,103204.25
2023-02-28T11:41:47.488Z,103212.25
2023-02-28T11:44:25.937Z,103207.00
2023-02-28T11:47:00.377Z,103206.25
2023-02-28T11:49:37.032Z,103199.91
2023-02-28T11:52:15.516Z,103201.59
2023-02-28T11:55:02.406Z,103196.19
2023-02-28T11:57:41.417Z,103196.22
2023-02-28T12:00:30.878Z,103188.31
2023-02-28T12:03:15.220Z,103184.75
2023-02-28T12:05:47.895Z,103177.53
2023-02-28T12:08:35.684Z,103181.94
2023-02-28T12:11:15.366Z,103178.38
2023-02-28T12:13:50.876Z,103175.81
2023-02-28T12:16:36.725Z,103170.38
2023-02-28T12:19:21.866Z,103162.47
2023-02-28T12:22:18.522Z,103160.53
2023-02-28T12:25:04.246Z,103149.66
2023-02-28T12:27:38.344Z,103155.81
2023-02-28T12:30:15.722Z,103145.34
2023-02-28T12:32:46.228Z,103143.53
2023-02-28T12:35:19.832Z,103141.97
2023-02-28T12:37:54.903Z,103140.25
2023-02-28T12:40:25.987Z,103140.06
2023-02-28T12:42:59.076Z,103131.91
2023-02-28T12:45:40.662Z,103121.13
2023-02-28T12:48:18.968Z,103120.06
2023-02-28T12:50:50.923Z,103114.78
2023-02-28T12:53:29.853Z,103117.47
2023-02-28T12:56:08.769Z,103114.00
2023-02-28T12:58:41.668Z,103112.25
2023-02-28T13:01:36.249Z,103104.03
2023-02-28T13:04:48.493Z,103102.16
2023-02-28T13:07:46.067Z,103098.81
2023-02-28T13:10:16.261Z,103093.38
2023-02-28T13:12:50.997Z,103101.38
2023-02-28T13:15:25.230Z,103084.31
2023-02-28T13:17:55.635Z,103079.72
2023-02-28T13:20:26.235Z,103076.13
2023-02-28T13:22:59.212Z,103077.13
2023-02-28T13:25:54.800Z,103078.66
2023-02-28T13:29:08.488Z,103073.16
2023-02-28T13:32:13.392Z,103068.84
2023-02-28T13:34:43.965Z,103069.63
2023-02-28T13:37:39.241Z,103075.44
2023-02-28T13:40:37.898Z,103066.53
2023-02-28T13:43:10.375Z,103064.94
2023-02-28T13:45:39.646Z,103069.22
2023-02-28T13:48:18.947Z,103073.69
2023-02-28T13:50:48.384Z,103072.03
2023-02-28T13:54:00.623Z,103067.09
2023-02-28T13:56:44.534Z,103067.75
2023-02-28T13:59:26.118Z,103068.56
2023-02-28T14:02:05.174Z,103070.34
2023-02-28T14:04:50.666Z,103074.72
2023-02-28T14:07:23.657Z,103074.38
2023-02-28T14:09:59.918Z,103069.16
2023-02-28T14:13:09.245Z,103076.00
2023-02-28T14:15:48.328Z,103073.19
2023-02-28T14:18:21.756Z,103076.97
2023-02-28T14:20:51.170Z,103077.09
2023-02-28T14:23:34.816Z,103079.88
2023-02-28T14:26:09.760Z,103075.47
2023-02-28T14:28:51.591Z,103076.59
2023-02-28T14:31:27.645Z,103078.38
2023-02-28T14:34:25.989Z,103081.84
2023-02-28T14:36:55.770Z,103073.88
2023-02-28T14:39:26.848Z,103075.97
2023-02-28T14:41:56.930Z,103068.06
2023-02-28T14:44:27.300Z,103078.72
2023-02-28T14:46:58.532Z,103074.25
2023-02-28T14:49:30.053Z,103077.75
2023-02-28T14:52:10.585Z,103077.59
2023-02-28T14:54:40.312Z,103083.72
2023-02-28T14:57:08.635Z,103083.81
2023-02-28T14:59:37.992Z,103080.28
2023-02-28T15:02:25.320Z,103067.72
2023-02-28T15:04:58.965Z,103071.25
2023-02-28T15:07:30.814Z,103072.31
2023-02-28T15:10:13.319Z,103071.75
2023-02-28T15:12:42.901Z,103061.31
2023-02-28T15:15:17.673Z,103070.00
2023-02-28T15:17:51.831Z,103065.53
2023-02-28T15:20:22.671Z,103058.81
2023-02-28T15:22:55.471Z,103053.50
2023-02-28T15:25:25.436Z,103054.50
2023-02-28T15:27:57.110Z,103064.16
2023-02-28T15:30:28.480Z,103048.94
2023-02-28T15:33:19.990Z,103046.22
2023-02-28T15:35:49.222Z,103045.38
2023-02-28T15:38:23.567Z,103048.84
2023-02-28T15:40:55.635Z,103051.59
2023-02-28T15:43:28.880Z,103047.97
2023-02-28T15:46:00.776Z,103041.03
2023-02-28T15:48:33.625Z,103044.63
2023-02-28T15:51:08.342Z,103039.34
2023-02-28T15:53:40.420Z,103038.53
2023-02-28T15:56:22.995Z,103036.81
2023-02-28T15:58:51.696Z,103039.34
2023-02-28T16:01:25.786Z,103029.69
2023-02-28T16:03:57.582Z,103028.00
2023-02-28T16:06:37.677Z,103028.03
2023-02-28T16:09:09.063Z,103028.88
2023-02-28T16:11:42.313Z,103030.69
2023-02-28T16:14:17.296Z,103036.97
2023-02-28T16:16:47.517Z,103036.16
2023-02-28T16:19:17.965Z,103039.69
2023-02-28T16:21:46.226Z,103037.13
2023-02-28T16:24:14.134Z,103038.22
2023-02-28T16:26:43.385Z,103044.44
2023-02-28T16:29:19.057Z,103048.91
2023-02-28T16:31:51.287Z,103045.38
2023-02-28T16:34:24.052Z,103035.66
2023-02-28T16:36:58.725Z,103048.13
2023-02-28T16:39:46.623Z,103046.34
2023-02-28T16:42:18.917Z,103046.50
2023-02-28T16:44:49.936Z,103050.09
2023-02-28T16:47:18.320Z,103043.97
2023-02-28T16:49:48.681Z,103052.00
2023-02-28T16:52:16.998Z,103046.72
2023-02-28T16:54:45.031Z,103057.47
2023-02-28T16:57:22.437Z,103046.06
2023-02-28T16:59:51.784Z,103055.81
2023-02-28T17:02:21.742Z,103059.38
2023-02-28T17:04:51.266Z,103063.88
2023-02-28T17:07:19.222Z,103062.13
2023-02-28T17:09:47.448Z,103079.91
2023-02-28T17:12:18.215Z,103078.19
2023-02-28T17:14:49.394Z,103074.75
2023-02-28T17:17:20.291Z,103082.69
2023-02-28T17:19:48.362Z,103086.25
2023-02-28T17:22:17.951Z,103080.06
2023-02-28T17:24:46.478Z,103086.31
2023-02-28T17:27:14.963Z,103082.81
2023-02-28T17:29:45.625Z,103082.03
2023-02-28T17:32:18.771Z,103091.78
2023-02-28T17:34:51.464Z,103092.69
2023-02-28T17:37:22.133Z,103094.53
2023-02-28T17:39:50.366Z,103097.19
2023-02-28T17:42:19.649Z,103096.31
2023-02-28T17:44:50.204Z,103100.75
2023-02-28T17:47:20.567Z,103097.25
2023-02-28T17:49:48.665Z,103101.72
2023-02-28T17:52:16.627Z,103099.97
2023-02-28T17:54:46.498Z,103104.34
2023-02-28T17:57:17.467Z,103107.94
2023-02-28T17:59:45.718Z,103103.56
2023-02-28T18:02:16.241Z,103100.91
2023-02-28T18:04:44.305Z,103105.34
2023-02-28T18:07:13.721Z,103101.81
2023-02-28T18:09:45.708Z,103100.09
2023-02-28T18:12:13.630Z,103110.72
2023-02-28T18:14:41.747Z,103112.53
2023-02-28T18:17:09.785Z,103108.13
2023-02-28T18:19:39.098Z,103110.81
2023-02-28T18:22:08.507Z,103105.47
2023-02-28T18:24:36.817Z,103108.13
2023-02-28T18:27:07.305Z,103111.81
2023-02-28T18:29:35.295Z,103110.06
2023-02-28T18:32:03.856Z,103117.19
2023-02-28T18:34:31.806Z,103109.22
2023-02-28T18:36:59.718Z,103110.13
2023-02-28T18:39:28.285Z,103096.00
2023-02-28T18:41:56.319Z,103113.66
2023-02-28T18:44:25.621Z,103108.41
2023-02-28T18:46:53.893Z,103111.91
2023-02-28T18:49:21.911Z,103104.88
2023-02-28T18:51:49.811Z,103118.13
2023-02-28T18:54:18.461Z,103118.13
2023-02-28T18:56:46.504Z,103113.72
2023-02-28T18:59:14.444Z,103108.44
2023-02-28T19:01:44.622Z,103103.16
2023-02-28T19:04:14.976Z,103109.38
2023-02-28T19:06:43.251Z,103107.63
2023-02-28T19:09:11.925Z,103108.50
2023-02-28T19:11:40.328Z,103112.94
2023-02-28T19:14:09.505Z,103105.00
2023-02-28T19:16:37.715Z,103104.16
2023-02-28T19:19:07.117Z,103112.09
2023-02-28T19:21:36.594Z,103110.38
2023-02-28T19:24:05.698Z,103112.13
2023-02-28T19:26:33.686Z,103113.03
2023-02-28T19:29:03.981Z,103114.78
2023-02-28T19:31:32.571Z,103116.53
2023-02-28T19:34:01.536Z,103115.69
2023-02-28T19:36:31.303Z,103121.84
2023-02-28T19:39:02.022Z,103121.84
2023-02-28T19:41:30.829Z,103123.66
2023-02-28T19:43:59.826Z,103119.22
2023-02-28T19:46:29.329Z,103121.88
2023-02-28T19:48:57.480Z,103127.19
2023-02-28T19:51:25.648Z,103125.41
2023-02-28T19:53:54.999Z,103130.72
2023-02-28T19:56:23.021Z,103130.72
2023-02-28T19:58:51.096Z,103133.38
2023-02-28T20:01:21.284Z,103119.28
2023-02-28T20:03:51.361Z,103116.66
2023-02-28T20:06:19.570Z,103116.63
2023-02-28T20:08:47.798Z,103122.81
2023-02-28T20:11:18.427Z,103120.16
2023-02-28T20:13:47.015Z,103123.72
2023-02-28T20:16:16.579Z,103123.69
2023-02-28T20:18:46.298Z,103121.06
2023-02-28T20:21:16.713Z,103128.13
2023-02-28T20:23:45.733Z,103116.69
2023-02-28T20:26:14.437Z,103124.63
2023-02-28T20:28:44.972Z,103129.03
2023-02-28T20:31:13.739Z,103128.16
2023-02-28T20:33:41.999Z,103126.38
2023-02-28T20:36:12.150Z,103119.34
2023-02-28T20:38:41.668Z,103127.28
2023-02-28T20:41:09.958Z,103126.41
2023-02-28T20:43:37.921Z,103124.66
2023-02-28T20:46:07.894Z,103121.13
2023-02-28T20:48:36.754Z,103121.09
2023-02-28T20:51:05.486Z,103122.00
2023-02-28T20:53:35.448Z,103124.63
2023-02-28T20:56:05.707Z,103115.81
2023-02-28T20:58:35.053Z,103109.66
2023-02-28T21:01:03.887Z,103107.91
2023-02-28T21:03:33.639Z,103106.13
2023-02-28T21:06:03.596Z,103116.69
2023-02-28T21:08:31.580Z,103114.94
2023-02-28T21:10:59.566Z,103120.22
2023-02-28T21:13:27.825Z,103129.06
2023-02-28T21:15:55.906Z,103113.19
2023-02-28T21:18:23.997Z,103115.84
2023-02-28T21:20:53.257Z,103117.63
2023-02-28T21:23:34.798Z,103122.91
2023-02-28T21:26:05.137Z,103123.75
2023-02-28T21:28:36.226Z,103125.53
2023-02-28T21:31:08.531Z,103125.53
2023-02-28T21:33:40.357Z,103122.88
2023-02-28T21:36:13.047Z,103126.41
2023-02-28T21:38:42.398Z,103129.94
2023-02-28T21:41:13.019Z,103129.03
2023-02-28T21:43:41.167Z,103124.63
2023-02-28T21:46:11.367Z,103130.81
2023-02-28T21:48:40.084Z,103132.56
2023-02-28T21:51:13.024Z,103129.06
2023-02-28T21:53:42.674Z,103123.75
2023-02-28T21:56:14.464Z,103129.03
2023-02-28T21:58:45.136Z,103132.56
2023-02-28T22:01:15.682Z,103132.56
2023-02-28T22:03:44.593Z,103130.78
2023-02-28T22:06:17.743Z,103136.09
2023-02-28T22:08:47.563Z,103129.03
2023-02-28T22:11:18.394Z,103123.75
2023-02-28T22:13:46.396Z,103125.53
2023-02-28T22:16:16.345Z,103121.09
2023-02-28T22:18:45.230Z,103122.88
2023-02-28T22:21:15.939Z,103124.63
2023-02-28T22:23:44.565Z,103126.38
2023-02-28T22:26:14.253Z,103130.78
2023-02-28T22:28:42.146Z,103137.81
2023-02-28T22:31:20.416Z,103129.03
2023-02-28T22:33:49.898Z,103131.63
2023-02-28T22:36:20.314Z,103136.03
2023-02-28T22:38:50.938Z,103140.41
2023-02-28T22:41:20.119Z,103138.66
2023-02-28T22:43:52.598Z,103143.97
2023-02-28T22:46:21.387Z,103145.72
2023-02-28T22:48:50.089Z,103143.97
2023-02-28T22:51:22.209Z,103140.44
2023-02-28T22:53:51.616Z,103138.69
2023-02-28T22:56:21.584Z,103137.75
2023-02-28T22:58:53.402Z,103132.47
2023-02-28T23:01:23.136Z,103135.09
2023-02-28T23:03:51.204Z,103136.00
2023-02-28T23:06:23.021Z,103135.09
2023-02-28T23:08:52.176Z,103133.31
2023-02-28T23:11:22.665Z,103150.91
2023-02-28T23:13:59.380Z,103148.25
2023-02-28T23:16:31.384Z,103142.94
2023-02-28T23:19:02.029Z,103140.31
2023-02-28T23:21:33.283Z,103142.03
2023-02-28T23:24:03.450Z,103137.69
2023-02-28T23:26:32.815Z,103138.53
2023-02-28T23:29:01.287Z,103141.13
2023-02-28T23:31:29.251Z,103141.13
2023-02-28T23:33:57.518Z,103135.84
2023-02-28T23:36:25.671Z,103136.75
2023-02-28T23:38:55.004Z,103124.38
2023-02-28T23:41:24.526Z,103124.38
2023-02-28T23:43:55.196Z,103117.38
2023-02-28T23:46:23.434Z,103109.47
2023-02-28T23:48:52.657Z,103111.25
2023-02-28T23:51:22.439Z,103117.41
2023-02-28T23:53:53.540Z,103119.16
2023-02-28T23:56:25.046Z,103132.31
2023-02-28T23:58:53.010Z,103129.66
